sensor_id;sensor_type;location;lat;lon;timestamp;pressure;altitude;pressure_sealevel;temperature;humidity
10881;BME280;5493;48.884;8.338;2022-09-24T00:02:11;99933.09;;;14.92;100.00
10881;BME280;5493;48.884;8.338;2022-09-24T00:04:38;99931.28;;;14.76;100.00
10881;BME280;5493;48.884;8.338;2022-09-24T00:07:04;99924.13;;;14.65;100.00
10881;BME280;5493;48.884;8.338;2022-09-24T00:09:31;99924.50;;;14.73;100.00
10881;BME280;5493;48.884;8.338;2022-09-24T00:11:59;99920.41;;;14.71;100.00
10881;BME280;5493;48.884;8.338;2022-09-24T00:14:26;99908.28;;;14.84;100.00
10881;BME280;5493;48.884;8.338;2022-09-24T00:16:53;99901.94;;;15.00;100.00
10881;BME280;5493;48.884;8.338;2022-09-24T00:19:19;99902.56;;;15.07;100.00
10881;BME280;5493;48.884;8.338;2022-09-24T00:21:46;99909.59;;;15.03;100.00
10881;BME280;5493;48.884;8.338;2022-09-24T00:24:14;99906.56;;;14.99;100.00
10881;BME280;5493;48.884;8.338;2022-09-24T00:27:03;99908.91;;;14.91;100.00
10881;BME280;5493;48.884;8.338;2022-09-24T00:29:29;99895.66;;;14.94;100.00
10881;BME280;5493;48.884;8.338;2022-09-24T00:32:00;99896.53;;;15.00;100.00
10881;BME280;5493;48.884;8.338;2022-09-24T00:34:27;99894.88;;;14.99;100.00
10881;BME280;5493;48.884;8.338;2022-09-24T00:36:53;99892.91;;;14.89;100.00
10881;BME280;5493;48.884;8.338;2022-09-24T00:39:20;99884.22;;;14.92;100.00
10881;BME280;5493;48.884;8.338;2022-09-24T00:41:46;99891.19;;;14.83;100.00
10881;BME280;5493;48.884;8.338;2022-09-24T00:44:50;99893.44;;;14.91;100.00
10881;BME280;5493;48.884;8.338;2022-09-24T00:47:26;99892.53;;;14.81;100.00
10881;BME280;5493;48.884;8.338;2022-09-24T00:49:57;99891.09;;;14.73;100.00
10881;BME280;5493;48.884;8.338;2022-09-24T00:52:25;99898.22;;;14.52;100.00
10881;BME280;5493;48.884;8.338;2022-09-24T00:54:51;99903.63;;;14.52;100.00
10881;BME280;5493;48.884;8.338;2022-09-24T00:57:18;99896.31;;;14.31;100.00
10881;BME280;5493;48.884;8.338;2022-09-24T00:59:45;99900.28;;;14.23;100.00
10881;BME280;5493;48.884;8.338;2022-09-24T01:02:12;99903.56;;;14.04;100.00
10881;BME280;5493;48.884;8.338;2022-09-24T01:04:39;99898.63;;;14.01;100.00
10881;BME280;5493;48.884;8.338;2022-09-24T01:07:06;99885.16;;;13.84;100.00
10881;BME280;5493;48.884;8.338;2022-09-24T01:09:32;99881.81;;;13.77;100.00
10881;BME280;5493;48.884;8.338;2022-09-24T01:12:03;99890.81;;;13.82;100.00
10881;BME280;5493;48.884;8.338;2022-09-24T01:14:49;99878.00;;;13.56;100.00
10881;BME280;5493;48.884;8.338;2022-09-24T01:17:28;99886.91;;;13.73;100.00
10881;BME280;5493;48.884;8.338;2022-09-24T01:20:18;99888.41;;;13.86;100.00
10881;BME280;5493;48.884;8.338;2022-09-24T01:23:02;99874.97;;;13.53;100.00
10881;BME280;5493;48.884;8.338;2022-09-24T01:25:39;99872.22;;;13.69;100.00
10881;BME280;5493;48.884;8.338;2022-09-24T01:28:25;99867.22;;;13.61;100.00
10881;BME280;5493;48.884;8.338;2022-09-24T01:31:03;99871.75;;;13.39;100.00
10881;BME280;5493;48.884;8.338;2022-09-24T01:33:32;99865.03;;;13.42;100.00
10881;BME280;5493;48.884;8.338;2022-09-24T01:36:03;99863.03;;;13.54;100.00
10881;BME280;5493;48.884;8.338;2022-09-24T01:38:35;99861.97;;;13.55;100.00
10881;BME280;5493;48.884;8.338;2022-09-24T01:41:04;99862.38;;;13.63;100.00
10881;BME280;5493;48.884;8.338;2022-09-24T01:43:33;99859.19;;;13.50;100.00
10881;BME280;5493;48.884;8.338;2022-09-24T01:46:02;99857.13;;;13.57;100.00
10881;BME280;5493;48.884;8.338;2022-09-24T01:48:31;99855.22;;;13.74;100.00
10881;BME280;5493;48.884;8.338;2022-09-24T01:51:01;99862.88;;;13.82;100.00
10881;BME280;5493;48.884;8.338;2022-09-24T01:53:35;99846.47;;;13.89;100.00
10881;BME280;5493;48.884;8.338;2022-09-24T01:56:07;99842.13;;;13.71;100.00
10881;BME280;5493;48.884;8.338;2022-09-24T01:58:39;99847.59;;;13.54;100.00
10881;BME280;5493;48.884;8.338;2022-09-24T02:01:15;99844.16;;;13.59;100.00
10881;BME280;5493;48.884;8.338;2022-09-24T02:03:46;99839.38;;;13.66;100.00
10881;BME280;5493;48.884;8.338;2022-09-24T02:06:17;99850.22;;;13.66;100.00
10881;BME280;5493;48.884;8.338;2022-09-24T02:08:47;99853.75;;;13.66;100.00
10881;BME280;5493;48.884;8.338;2022-09-24T02:11:16;99849.78;;;13.74;100.00
10881;BME280;5493;48.884;8.338;2022-09-24T02:13:46;99842.66;;;13.90;100.00
10881;BME280;5493;48.884;8.338;2022-09-24T02:16:19;99841.47;;;14.02;100.00
10881;BME280;5493;48.884;8.338;2022-09-24T02:18:50;99839.78;;;13.96;100.00
10881;BME280;5493;48.884;8.338;2022-09-24T02:21:19;99843.13;;;14.03;100.00
10881;BME280;5493;48.884;8.338;2022-09-24T02:23:50;99837.53;;;14.15;100.00
10881;BME280;5493;48.884;8.338;2022-09-24T02:26:19;99842.94;;;14.10;100.00
10881;BME280;5493;48.884;8.338;2022-09-24T02:28:46;99841.03;;;14.10;100.00
10881;BME280;5493;48.884;8.338;2022-09-24T02:31:15;99841.97;;;14.21;100.00
10881;BME280;5493;48.884;8.338;2022-09-24T02:33:48;99837.69;;;14.25;100.00
10881;BME280;5493;48.884;8.338;2022-09-24T02:36:33;99835.59;;;14.32;100.00
10881;BME280;5493;48.884;8.338;2022-09-24T02:39:00;99844.69;;;14.21;100.00
10881;BME280;5493;48.884;8.338;2022-09-24T02:41:28;99838.16;;;14.22;100.00
10881;BME280;5493;48.884;8.338;2022-09-24T02:43:56;99844.50;;;14.32;100.00
10881;BME280;5493;48.884;8.338;2022-09-24T02:46:22;99835.94;;;14.36;100.00
10881;BME280;5493;48.884;8.338;2022-09-24T02:48:50;99837.00;;;14.35;100.00
10881;BME280;5493;48.884;8.338;2022-09-24T02:51:17;99828.66;;;14.41;100.00
10881;BME280;5493;48.884;8.338;2022-09-24T02:53:44;99827.63;;;14.25;100.00
10881;BME280;5493;48.884;8.338;2022-09-24T02:56:10;99826.84;;;14.25;100.00
10881;BME280;5493;48.884;8.338;2022-09-24T02:58:37;99828.84;;;14.13;100.00
10881;BME280;5493;48.884;8.338;2022-09-24T03:01:04;99830.50;;;14.14;100.00
10881;BME280;5493;48.884;8.338;2022-09-24T03:03:31;99831.81;;;14.11;100.00
10881;BME280;5493;48.884;8.338;2022-09-24T03:05:59;99829.00;;;14.01;100.00
10881;BME280;5493;48.884;8.338;2022-09-24T03:08:26;99829.41;;;13.71;100.00
10881;BME280;5493;48.884;8.338;2022-09-24T03:10:52;99824.00;;;13.93;100.00
10881;BME280;5493;48.884;8.338;2022-09-24T03:13:20;99824.59;;;14.22;100.00
10881;BME280;5493;48.884;8.338;2022-09-24T03:15:47;99823.50;;;14.18;100.00
10881;BME280;5493;48.884;8.338;2022-09-24T03:18:14;99823.03;;;14.26;100.00
10881;BME280;5493;48.884;8.338;2022-09-24T03:20:40;99826.16;;;14.13;100.00
10881;BME280;5493;48.884;8.338;2022-09-24T03:23:08;99825.22;;;14.29;100.00
10881;BME280;5493;48.884;8.338;2022-09-24T03:25:35;99837.00;;;14.35;100.00
10881;BME280;5493;48.884;8.338;2022-09-24T03:28:01;99826.34;;;14.33;100.00
10881;BME280;5493;48.884;8.338;2022-09-24T03:30:28;99824.28;;;14.18;100.00
10881;BME280;5493;48.884;8.338;2022-09-24T03:33:12;99828.97;;;14.23;100.00
10881;BME280;5493;48.884;8.338;2022-09-24T03:35:38;99834.38;;;14.23;100.00
10881;BME280;5493;48.884;8.338;2022-09-24T03:38:06;99835.84;;;14.30;100.00
10881;BME280;5493;48.884;8.338;2022-09-24T03:40:34;99830.75;;;14.34;100.00
10881;BME280;5493;48.884;8.338;2022-09-24T03:43:00;99837.41;;;14.26;100.00
10881;BME280;5493;48.884;8.338;2022-09-24T03:45:27;99821.75;;;14.34;100.00
10881;BME280;5493;48.884;8.338;2022-09-24T03:47:53;99825.81;;;14.31;100.00
10881;BME280;5493;48.884;8.338;2022-09-24T03:50:20;99815.78;;;14.32;100.00
10881;BME280;5493;48.884;8.338;2022-09-24T03:52:46;99823.16;;;14.36;100.00
10881;BME280;5493;48.884;8.338;2022-09-24T03:55:13;99819.44;;;14.42;100.00
10881;BME280;5493;48.884;8.338;2022-09-24T03:57:41;99823.03;;;14.26;100.00
10881;BME280;5493;48.884;8.338;2022-09-24T04:00:09;99815.75;;;14.05;100.00
10881;BME280;5493;48.884;8.338;2022-09-24T04:02:36;99811.59;;;13.97;100.00
10881;BME280;5493;48.884;8.338;2022-09-24T04:05:03;99810.03;;;13.79;100.00
10881;BME280;5493;48.884;8.338;2022-09-24T04:07:30;99815.81;;;13.88;100.00
10881;BME280;5493;48.884;8.338;2022-09-24T04:09:56;99812.66;;;14.18;100.00
10881;BME280;5493;48.884;8.338;2022-09-24T04:12:23;99818.88;;;14.18;100.00
10881;BME280;5493;48.884;8.338;2022-09-24T04:14:50;99820.34;;;13.82;100.00
10881;BME280;5493;48.884;8.338;2022-09-24T04:17:17;99811.84;;;13.96;100.00
10881;BME280;5493;48.884;8.338;2022-09-24T04:19:43;99803.59;;;13.86;100.00
10881;BME280;5493;48.884;8.338;2022-09-24T04:22:10;99804.09;;;13.82;100.00
10881;BME280;5493;48.884;8.338;2022-09-24T04:24:37;99809.69;;;13.76;100.00
10881;BME280;5493;48.884;8.338;2022-09-24T04:27:03;99803.91;;;13.89;100.00
10881;BME280;5493;48.884;8.338;2022-09-24T04:29:30;99809.78;;;13.59;100.00
10881;BME280;5493;48.884;8.338;2022-09-24T04:31:57;99806.88;;;13.66;100.00
10881;BME280;5493;48.884;8.338;2022-09-24T04:34:24;99808.53;;;13.50;100.00
10881;BME280;5493;48.884;8.338;2022-09-24T04:36:50;99812.78;;;13.41;100.00
10881;BME280;5493;48.884;8.338;2022-09-24T04:39:17;99803.56;;;13.64;100.00
10881;BME280;5493;48.884;8.338;2022-09-24T04:41:46;99801.56;;;13.54;100.00
10881;BME280;5493;48.884;8.338;2022-09-24T04:44:13;99818.00;;;13.48;100.00
10881;BME280;5493;48.884;8.338;2022-09-24T04:46:39;99818.09;;;13.53;100.00
10881;BME280;5493;48.884;8.338;2022-09-24T04:49:08;99821.22;;;13.45;100.00
10881;BME280;5493;48.884;8.338;2022-09-24T04:51:36;99819.97;;;13.36;100.00
10881;BME280;5493;48.884;8.338;2022-09-24T04:54:03;99825.31;;;13.47;100.00
10881;BME280;5493;48.884;8.338;2022-09-24T04:56:30;99820.53;;;13.54;100.00
10881;BME280;5493;48.884;8.338;2022-09-24T04:58:56;99808.63;;;13.55;100.00
10881;BME280;5493;48.884;8.338;2022-09-24T05:01:23;99814.69;;;13.62;100.00
10881;BME280;5493;48.884;8.338;2022-09-24T05:03:50;99813.44;;;13.92;100.00
10881;BME280;5493;48.884;8.338;2022-09-24T05:06:18;99812.81;;;13.85;100.00
10881;BME280;5493;48.884;8.338;2022-09-24T05:08:45;99819.47;;;13.55;100.00
10881;BME280;5493;48.884;8.338;2022-09-24T05:11:11;99812.19;;;13.77;100.00
10881;BME280;5493;48.884;8.338;2022-09-24T05:13:38;99809.00;;;13.64;100.00
10881;BME280;5493;48.884;8.338;2022-09-24T05:16:05;99804.91;;;13.61;100.00
10881;BME280;5493;48.884;8.338;2022-09-24T05:18:31;99811.53;;;13.70;100.00
10881;BME280;5493;48.884;8.338;2022-09-24T05:20:58;99810.75;;;13.97;100.00
10881;BME280;5493;48.884;8.338;2022-09-24T05:23:25;99810.28;;;14.00;100.00
10881;BME280;5493;48.884;8.338;2022-09-24T05:25:52;99808.06;;;13.97;100.00
10881;BME280;5493;48.884;8.338;2022-09-24T05:28:45;99805.50;;;13.85;100.00
10881;BME280;5493;48.884;8.338;2022-09-24T05:31:12;99817.28;;;13.96;100.00
10881;BME280;5493;48.884;8.338;2022-09-24T05:33:38;99816.69;;;13.94;100.00
10881;BME280;5493;48.884;8.338;2022-09-24T05:36:05;99824.19;;;14.08;100.00
10881;BME280;5493;48.884;8.338;2022-09-24T05:38:33;99819.22;;;14.00;100.00
10881;BME280;5493;48.884;8.338;2022-09-24T05:40:59;99827.66;;;14.04;100.00
10881;BME280;5493;48.884;8.338;2022-09-24T05:43:26;99822.19;;;13.77;100.00
10881;BME280;5493;48.884;8.338;2022-09-24T05:45:53;99812.84;;;13.90;100.00
10881;BME280;5493;48.884;8.338;2022-09-24T05:48:21;99824.81;;;13.72;100.00
10881;BME280;5493;48.884;8.338;2022-09-24T05:50:47;99827.84;;;13.97;100.00
10881;BME280;5493;48.884;8.338;2022-09-24T05:53:16;99814.47;;;14.12;100.00
10881;BME280;5493;48.884;8.338;2022-09-24T05:55:44;99822.09;;;14.15;100.00
10881;BME280;5493;48.884;8.338;2022-09-24T05:58:10;99825.84;;;14.09;100.00
10881;BME280;5493;48.884;8.338;2022-09-24T06:00:37;99824.28;;;14.18;100.00
10881;BME280;5493;48.884;8.338;2022-09-24T06:03:06;99826.22;;;14.18;100.00
10881;BME280;5493;48.884;8.338;2022-09-24T06:05:35;99832.56;;;14.28;100.00
10881;BME280;5493;48.884;8.338;2022-09-24T06:08:02;99829.47;;;14.42;100.00
10881;BME280;5493;48.884;8.338;2022-09-24T06:10:29;99822.41;;;14.41;100.00
10881;BME280;5493;48.884;8.338;2022-09-24T06:12:57;99837.16;;;14.50;100.00
10881;BME280;5493;48.884;8.338;2022-09-24T06:15:24;99830.00;;;14.39;100.00
10881;BME280;5493;48.884;8.338;2022-09-24T06:17:52;99843.28;;;14.18;100.00
10881;BME280;5493;48.884;8.338;2022-09-24T06:20:18;99836.06;;;14.51;100.00
10881;BME280;5493;48.884;8.338;2022-09-24T06:22:45;99837.09;;;14.71;100.00
10881;BME280;5493;48.884;8.338;2022-09-24T06:25:12;99831.06;;;14.64;100.00
10881;BME280;5493;48.884;8.338;2022-09-24T06:27:38;99832.44;;;14.40;100.00
10881;BME280;5493;48.884;8.338;2022-09-24T06:30:08;99846.25;;;14.39;100.00
10881;BME280;5493;48.884;8.338;2022-09-24T06:32:36;99838.53;;;14.52;100.00
10881;BME280;5493;48.884;8.338;2022-09-24T06:35:02;99849.31;;;14.74;100.00
10881;BME280;5493;48.884;8.338;2022-09-24T06:37:29;99846.53;;;14.96;100.00
10881;BME280;5493;48.884;8.338;2022-09-24T06:39:55;99845.66;;;15.22;100.00
10881;BME280;5493;48.884;8.338;2022-09-24T06:42:22;99834.91;;;15.37;100.00
10881;BME280;5493;48.884;8.338;2022-09-24T06:44:48;99838.09;;;15.29;100.00
10881;BME280;5493;48.884;8.338;2022-09-24T06:47:17;99835.44;;;15.39;100.00
10881;BME280;5493;48.884;8.338;2022-09-24T06:49:43;99830.94;;;15.50;100.00
10881;BME280;5493;48.884;8.338;2022-09-24T06:52:09;99831.25;;;15.58;100.00
10881;BME280;5493;48.884;8.338;2022-09-24T06:54:36;99833.19;;;15.68;100.00
10881;BME280;5493;48.884;8.338;2022-09-24T06:57:05;99837.22;;;15.55;100.00
10881;BME280;5493;48.884;8.338;2022-09-24T06:59:31;99827.88;;;15.46;100.00
10881;BME280;5493;48.884;8.338;2022-09-24T07:01:58;99835.59;;;15.59;100.00
10881;BME280;5493;48.884;8.338;2022-09-24T07:04:26;99843.09;;;15.89;100.00
10881;BME280;5493;48.884;8.338;2022-09-24T07:06:52;99837.44;;;16.01;100.00
10881;BME280;5493;48.884;8.338;2022-09-24T07:09:36;99840.41;;;15.94;100.00
10881;BME280;5493;48.884;8.338;2022-09-24T07:12:05;99850.19;;;15.90;100.00
10881;BME280;5493;48.884;8.338;2022-09-24T07:14:33;99850.53;;;16.09;100.00
10881;BME280;5493;48.884;8.338;2022-09-24T07:16:59;99846.09;;;15.93;100.00
10881;BME280;5493;48.884;8.338;2022-09-24T07:19:27;99857.84;;;16.03;100.00
10881;BME280;5493;48.884;8.338;2022-09-24T07:21:54;99844.78;;;16.00;100.00
10881;BME280;5493;48.884;8.338;2022-09-24T07:24:20;99856.72;;;15.99;100.00
10881;BME280;5493;48.884;8.338;2022-09-24T07:26:47;99860.34;;;15.63;100.00
10881;BME280;5493;48.884;8.338;2022-09-24T07:29:14;99860.56;;;15.98;100.00
10881;BME280;5493;48.884;8.338;2022-09-24T07:31:40;99874.16;;;16.03;100.00
10881;BME280;5493;48.884;8.338;2022-09-24T07:34:07;99871.94;;;15.90;100.00
10881;BME280;5493;48.884;8.338;2022-09-24T07:36:35;99873.28;;;15.93;100.00
10881;BME280;5493;48.884;8.338;2022-09-24T07:39:02;99877.31;;;15.80;100.00
10881;BME280;5493;48.884;8.338;2022-09-24T07:41:29;99864.78;;;15.79;100.00
10881;BME280;5493;48.884;8.338;2022-09-24T07:43:56;99874.50;;;15.70;100.00
10881;BME280;5493;48.884;8.338;2022-09-24T07:46:22;99875.63;;;15.74;100.00
10881;BME280;5493;48.884;8.338;2022-09-24T07:48:51;99880.28;;;15.79;100.00
10881;BME280;5493;48.884;8.338;2022-09-24T07:51:20;99879.91;;;16.12;100.00
10881;BME280;5493;48.884;8.338;2022-09-24T07:53:48;99880.69;;;16.07;100.00
10881;BME280;5493;48.884;8.338;2022-09-24T07:56:14;99878.19;;;15.91;100.00
10881;BME280;5493;48.884;8.338;2022-09-24T07:58:42;99878.38;;;15.79;100.00
10881;BME280;5493;48.884;8.338;2022-09-24T08:01:08;99882.75;;;15.80;100.00
10881;BME280;5493;48.884;8.338;2022-09-24T08:03:35;99880.47;;;15.67;100.00
10881;BME280;5493;48.884;8.338;2022-09-24T08:06:03;99880.19;;;15.58;100.00
10881;BME280;5493;48.884;8.338;2022-09-24T08:08:29;99878.91;;;15.76;100.00
10881;BME280;5493;48.884;8.338;2022-09-24T08:11:01;99875.91;;;15.77;100.00
10881;BME280;5493;48.884;8.338;2022-09-24T08:13:28;99871.72;;;16.07;100.00
10881;BME280;5493;48.884;8.338;2022-09-24T08:15:55;99867.31;;;15.96;100.00
10881;BME280;5493;48.884;8.338;2022-09-24T08:18:23;99868.72;;;16.03;100.00
10881;BME280;5493;48.884;8.338;2022-09-24T08:20:50;99862.69;;;16.58;100.00
10881;BME280;5493;48.884;8.338;2022-09-24T08:23:16;99859.91;;;16.48;100.00
10881;BME280;5493;48.884;8.338;2022-09-24T08:25:43;99865.34;;;16.53;100.00
10881;BME280;5493;48.884;8.338;2022-09-24T08:28:10;99869.53;;;16.81;100.00
10881;BME280;5493;48.884;8.338;2022-09-24T08:30:37;99868.41;;;16.72;100.00
10881;BME280;5493;48.884;8.338;2022-09-24T08:33:05;99870.00;;;16.53;100.00
10881;BME280;5493;48.884;8.338;2022-09-24T08:35:31;99877.41;;;16.67;100.00
10881;BME280;5493;48.884;8.338;2022-09-24T08:37:58;99870.88;;;16.79;100.00
10881;BME280;5493;48.884;8.338;2022-09-24T08:40:28;99867.34;;;16.78;100.00
10881;BME280;5493;48.884;8.338;2022-09-24T08:43:00;99871.41;;;16.70;100.00
10881;BME280;5493;48.884;8.338;2022-09-24T08:45:33;99880.69;;;16.75;100.00
10881;BME280;5493;48.884;8.338;2022-09-24T08:48:27;99879.59;;;16.86;100.00
10881;BME280;5493;48.884;8.338;2022-09-24T08:50:59;99882.63;;;17.09;100.00
10881;BME280;5493;48.884;8.338;2022-09-24T08:53:40;99882.06;;;16.92;100.00
10881;BME280;5493;48.884;8.338;2022-09-24T08:56:08;99886.41;;;17.34;100.00
10881;BME280;5493;48.884;8.338;2022-09-24T08:58:39;99889.44;;;17.32;100.00
10881;BME280;5493;48.884;8.338;2022-09-24T09:01:19;99891.59;;;17.40;100.00
10881;BME280;5493;48.884;8.338;2022-09-24T09:03:51;99893.25;;;17.36;100.00
10881;BME280;5493;48.884;8.338;2022-09-24T09:06:49;99889.97;;;17.34;100.00
10881;BME280;5493;48.884;8.338;2022-09-24T09:09:20;99889.41;;;17.37;100.00
10881;BME280;5493;48.884;8.338;2022-09-24T09:11:51;99890.53;;;17.36;100.00
10881;BME280;5493;48.884;8.338;2022-09-24T09:14:21;99889.41;;;17.42;100.00
10881;BME280;5493;48.884;8.338;2022-09-24T09:16:52;99890.50;;;17.31;100.00
10881;BME280;5493;48.884;8.338;2022-09-24T09:19:25;99887.50;;;17.38;100.00
10881;BME280;5493;48.884;8.338;2022-09-24T09:21:56;99890.53;;;17.56;100.00
10881;BME280;5493;48.884;8.338;2022-09-24T09:24:30;99894.59;;;17.59;100.00
10881;BME280;5493;48.884;8.338;2022-09-24T09:27:00;99892.69;;;17.59;100.00
10881;BME280;5493;48.884;8.338;2022-09-24T09:29:27;99889.66;;;17.56;100.00
10881;BME280;5493;48.884;8.338;2022-09-24T09:32:04;99881.69;;;18.05;100.00
10881;BME280;5493;48.884;8.338;2022-09-24T09:34:43;99884.06;;;18.27;100.00
10881;BME280;5493;48.884;8.338;2022-09-24T09:37:20;99884.25;;;18.40;100.00
10881;BME280;5493;48.884;8.338;2022-09-24T09:39:53;99888.84;;;18.50;100.00
10881;BME280;5493;48.884;8.338;2022-09-24T09:42:27;99880.66;;;18.55;100.00
10881;BME280;5493;48.884;8.338;2022-09-24T09:44:59;99886.09;;;18.50;100.00
10881;BME280;5493;48.884;8.338;2022-09-24T09:47:35;99885.66;;;18.33;100.00
10881;BME280;5493;48.884;8.338;2022-09-24T09:50:10;99879.38;;;18.27;100.00
10881;BME280;5493;48.884;8.338;2022-09-24T09:52:39;99883.22;;;18.26;100.00
10881;BME280;5493;48.884;8.338;2022-09-24T09:55:06;99874.03;;;18.12;100.00
10881;BME280;5493;48.884;8.338;2022-09-24T09:57:34;99881.06;;;18.23;100.00
10881;BME280;5493;48.884;8.338;2022-09-24T10:00:01;99879.38;;;18.27;100.00
10881;BME280;5493;48.884;8.338;2022-09-24T10:02:32;99883.00;;;18.17;100.00
10881;BME280;5493;48.884;8.338;2022-09-24T10:05:01;99885.66;;;18.33;100.00
10881;BME280;5493;48.884;8.338;2022-09-24T10:07:28;99875.75;;;18.47;100.00
10881;BME280;5493;48.884;8.338;2022-09-24T10:10:01;99877.66;;;18.46;100.00
10881;BME280;5493;48.884;8.338;2022-09-24T10:12:29;99887.00;;;18.35;100.00
10881;BME280;5493;48.884;8.338;2022-09-24T10:14:58;99884.69;;;18.08;100.00
10881;BME280;5493;48.884;8.338;2022-09-24T10:17:28;99881.03;;;18.28;100.00
10881;BME280;5493;48.884;8.338;2022-09-24T10:19:59;99881.84;;;18.34;100.00
10881;BME280;5493;48.884;8.338;2022-09-24T10:22:27;99883.41;;;18.55;100.00
10881;BME280;5493;48.884;8.338;2022-09-24T10:24:57;99889.72;;;18.40;100.00
10881;BME280;5493;48.884;8.338;2022-09-24T10:27:29;99882.41;;;18.80;100.00
10881;BME280;5493;48.884;8.338;2022-09-24T10:29:57;99881.59;;;18.79;100.00
10881;BME280;5493;48.884;8.338;2022-09-24T10:32:41;99874.41;;;18.93;100.00
10881;BME280;5493;48.884;8.338;2022-09-24T10:35:31;99868.78;;;19.13;100.00
10881;BME280;5493;48.884;8.338;2022-09-24T10:38:00;99870.00;;;19.31;100.00
10881;BME280;5493;48.884;8.338;2022-09-24T10:40:29;99870.84;;;19.60;100.00
10881;BME280;5493;48.884;8.338;2022-09-24T10:42:58;99864.91;;;20.25;100.00
10881;BME280;5493;48.884;8.338;2022-09-24T10:48:15;99848.47;;;20.67;100.00
10881;BME280;5493;48.884;8.338;2022-09-24T10:50:56;99853.03;;;20.34;100.00
10881;BME280;5493;48.884;8.338;2022-09-24T10:53:34;99852.06;;;21.00;100.00
10881;BME280;5493;48.884;8.338;2022-09-24T10:56:12;99849.47;;;21.08;100.00
10881;BME280;5493;48.884;8.338;2022-09-24T10:59:04;99843.56;;;20.83;100.00
10881;BME280;5493;48.884;8.338;2022-09-24T11:01:41;99841.38;;;21.17;100.00
10881;BME280;5493;48.884;8.338;2022-09-24T11:04:32;99845.44;;;21.52;100.00
10881;BME280;5493;48.884;8.338;2022-09-24T11:07:28;99836.75;;;22.04;100.00
10881;BME280;5493;48.884;8.338;2022-09-24T11:10:07;99839.69;;;22.35;100.00
10881;BME280;5493;48.884;8.338;2022-09-24T11:12:45;99837.41;;;22.37;100.00
10881;BME280;5493;48.884;8.338;2022-09-24T11:15:24;99832.97;;;22.64;100.00
10881;BME280;5493;48.884;8.338;2022-09-24T11:18:10;99828.47;;;22.81;100.00
10881;BME280;5493;48.884;8.338;2022-09-24T11:20:48;99825.38;;;22.83;100.00
10881;BME280;5493;48.884;8.338;2022-09-24T11:23:30;99822.16;;;22.81;100.00
10881;BME280;5493;48.884;8.338;2022-09-24T11:26:06;99821.06;;;22.68;100.00
10881;BME280;5493;48.884;8.338;2022-09-24T11:29:04;99820.28;;;21.91;100.00
10881;BME280;5493;48.884;8.338;2022-09-24T11:31:39;99811.09;;;21.68;100.00
10881;BME280;5493;48.884;8.338;2022-09-24T11:34:16;99829.81;;;21.66;100.00
10881;BME280;5493;48.884;8.338;2022-09-24T11:36:58;99823.38;;;21.57;100.00
10881;BME280;5493;48.884;8.338;2022-09-24T11:39:42;99817.53;;;21.18;100.00
10881;BME280;5493;48.884;8.338;2022-09-24T11:42:20;99808.59;;;21.26;100.00
10881;BME280;5493;48.884;8.338;2022-09-24T11:45:09;99807.59;;;21.22;100.00
10881;BME280;5493;48.884;8.338;2022-09-24T11:47:54;99805.66;;;21.22;100.00
10881;BME280;5493;48.884;8.338;2022-09-24T11:50:34;99809.94;;;21.42;100.00
10881;BME280;5493;48.884;8.338;2022-09-24T11:53:10;99810.69;;;21.47;100.00
10881;BME280;5493;48.884;8.338;2022-09-24T11:55:45;99802.88;;;21.68;100.00
10881;BME280;5493;48.884;8.338;2022-09-24T11:58:19;99796.66;;;21.90;100.00
10881;BME280;5493;48.884;8.338;2022-09-24T12:00:52;99795.13;;;22.11;100.00
10881;BME280;5493;48.884;8.338;2022-09-24T12:03:22;99795.72;;;22.22;100.00
10881;BME280;5493;48.884;8.338;2022-09-24T12:05:52;99798.91;;;22.15;100.00
10881;BME280;5493;48.884;8.338;2022-09-24T12:08:25;99792.06;;;21.85;100.00
10881;BME280;5493;48.884;8.338;2022-09-24T12:10:59;99793.41;;;21.74;100.00
10881;BME280;5493;48.884;8.338;2022-09-24T12:13:30;99788.31;;;21.81;100.00
10881;BME280;5493;48.884;8.338;2022-09-24T12:16:02;99782.03;;;21.67;100.00
10881;BME280;5493;48.884;8.338;2022-09-24T12:18:35;99789.75;;;21.51;100.00
10881;BME280;5493;48.884;8.338;2022-09-24T12:21:07;99779.41;;;21.62;100.00
10881;BME280;5493;48.884;8.338;2022-09-24T12:23:38;99779.19;;;21.72;100.00
10881;BME280;5493;48.884;8.338;2022-09-24T12:26:09;99783.66;;;21.82;100.00
10881;BME280;5493;48.884;8.338;2022-09-24T12:28:41;99781.03;;;21.63;100.00
10881;BME280;5493;48.884;8.338;2022-09-24T12:31:29;99777.66;;;21.52;100.00
10881;BME280;5493;48.884;8.338;2022-09-24T12:34:21;99781.31;;;21.89;100.00
10881;BME280;5493;48.884;8.338;2022-09-24T12:36:57;99769.53;;;21.88;100.00
10881;BME280;5493;48.884;8.338;2022-09-24T12:39:32;99768.31;;;21.94;100.00
10881;BME280;5493;48.884;8.338;2022-09-24T12:42:06;99761.69;;;21.82;100.00
10881;BME280;5493;48.884;8.338;2022-09-24T12:44:39;99755.00;;;21.88;100.00
10881;BME280;5493;48.884;8.338;2022-09-24T12:47:16;99754.22;;;22.23;100.00
10881;BME280;5493;48.884;8.338;2022-09-24T12:49:48;99763.72;;;22.17;100.00
10881;BME280;5493;48.884;8.338;2022-09-24T12:52:17;99766.53;;;22.26;100.00
10881;BME280;5493;48.884;8.338;2022-09-24T12:54:44;99766.22;;;22.27;100.00
10881;BME280;5493;48.884;8.338;2022-09-24T12:57:15;99758.31;;;22.48;100.00
10881;BME280;5493;48.884;8.338;2022-09-24T12:59:48;99756.91;;;22.95;100.00
10881;BME280;5493;48.884;8.338;2022-09-24T13:02:17;99751.44;;;22.73;100.00
10881;BME280;5493;48.884;8.338;2022-09-24T13:04:49;99750.47;;;22.99;100.00
10881;BME280;5493;48.884;8.338;2022-09-24T13:07:28;99746.66;;;23.40;100.00
10881;BME280;5493;48.884;8.338;2022-09-24T13:09:54;99746.28;;;23.02;100.00
10881;BME280;5493;48.884;8.338;2022-09-24T13:12:30;99736.06;;;23.33;100.00
10881;BME280;5493;48.884;8.338;2022-09-24T13:14:59;99741.22;;;23.26;100.00
10881;BME280;5493;48.884;8.338;2022-09-24T13:17:29;99744.72;;;23.40;100.00
10881;BME280;5493;48.884;8.338;2022-09-24T13:19:58;99734.53;;;23.97;100.00
10881;BME280;5493;48.884;8.338;2022-09-24T13:22:27;99733.47;;;23.28;100.00